sensor_id;sensor_type;location;lat;lon;timestamp;temperature;humidity
19279;DHT22;9773;47.062;15.446;2023-09-19T00:02:03;19.90;99.90
19279;DHT22;9773;47.062;15.446;2023-09-19T00:04:32;19.80;99.90
19279;DHT22;9773;47.062;15.446;2023-09-19T00:06:59;19.80;99.90
19279;DHT22;9773;47.062;15.446;2023-09-19T00:09:24;19.80;99.90
19279;DHT22;9773;47.062;15.446;2023-09-19T00:11:53;19.70;99.90
19279;DHT22;9773;47.062;15.446;2023-09-19T00:14:19;19.70;99.90
19279;DHT22;9773;47.062;15.446;2023-09-19T00:16:45;19.70;99.90
19279;DHT22;9773;47.062;15.446;2023-09-19T00:19:15;19.70;99.90
19279;DHT22;9773;47.062;15.446;2023-09-19T00:21:41;19.70;99.90
19279;DHT22;9773;47.062;15.446;2023-09-19T00:24:08;19.70;99.90
19279;DHT22;9773;47.062;15.446;2023-09-19T00:26:34;19.70;99.90
19279;DHT22;9773;47.062;15.446;2023-09-19T00:29:00;19.70;99.90
19279;DHT22;9773;47.062;15.446;2023-09-19T00:31:29;19.70;99.90
19279;DHT22;9773;47.062;15.446;2023-09-19T00:33:55;19.70;99.90
19279;DHT22;9773;47.062;15.446;2023-09-19T00:36:25;19.70;99.90
19279;DHT22;9773;47.062;15.446;2023-09-19T00:38:51;19.70;99.90
19279;DHT22;9773;47.062;15.446;2023-09-19T00:41:16;19.70;99.90
19279;DHT22;9773;47.062;15.446;2023-09-19T00:43:43;19.70;99.90
19279;DHT22;9773;47.062;15.446;2023-09-19T00:46:08;19.60;99.90
19279;DHT22;9773;47.062;15.446;2023-09-19T00:48:40;19.60;99.90
19279;DHT22;9773;47.062;15.446;2023-09-19T00:51:09;19.60;99.90
19279;DHT22;9773;47.062;15.446;2023-09-19T00:53:36;19.50;99.90
19279;DHT22;9773;47.062;15.446;2023-09-19T00:56:03;19.50;99.90
19279;DHT22;9773;47.062;15.446;2023-09-19T00:58:33;19.50;99.90
19279;DHT22;9773;47.062;15.446;2023-09-19T01:01:01;19.50;99.90
19279;DHT22;9773;47.062;15.446;2023-09-19T01:03:28;19.40;99.90
19279;DHT22;9773;47.062;15.446;2023-09-19T01:05:54;19.40;99.90
19279;DHT22;9773;47.062;15.446;2023-09-19T01:08:20;19.40;99.90
19279;DHT22;9773;47.062;15.446;2023-09-19T01:10:52;19.40;99.90
19279;DHT22;9773;47.062;15.446;2023-09-19T01:19:19;19.40;99.90
19279;DHT22;9773;47.062;15.446;2023-09-19T01:30:14;19.40;99.90
19279;DHT22;9773;47.062;15.446;2023-09-19T01:32:40;19.40;99.90
19279;DHT22;9773;47.062;15.446;2023-09-19T01:35:07;19.30;99.90
19279;DHT22;9773;47.062;15.446;2023-09-19T01:37:37;19.40;99.90
19279;DHT22;9773;47.062;15.446;2023-09-19T01:40:08;19.40;99.90
19279;DHT22;9773;47.062;15.446;2023-09-19T01:43:02;19.50;99.90
19279;DHT22;9773;47.062;15.446;2023-09-19T01:48:19;19.50;99.90
19279;DHT22;9773;47.062;15.446;2023-09-19T01:51:06;19.60;99.90
19279;DHT22;9773;47.062;15.446;2023-09-19T01:53:56;19.60;99.90
19279;DHT22;9773;47.062;15.446;2023-09-19T01:56:36;19.50;99.90
19279;DHT22;9773;47.062;15.446;2023-09-19T01:59:13;19.50;99.90
19279;DHT22;9773;47.062;15.446;2023-09-19T02:01:42;19.60;99.90
19279;DHT22;9773;47.062;15.446;2023-09-19T02:04:10;19.60;99.90
19279;DHT22;9773;47.062;15.446;2023-09-19T02:06:40;19.60;99.90
19279;DHT22;9773;47.062;15.446;2023-09-19T02:09:06;19.60;99.90
19279;DHT22;9773;47.062;15.446;2023-09-19T02:11:32;19.60;99.90
19279;DHT22;9773;47.062;15.446;2023-09-19T02:13:58;19.60;99.90
19279;DHT22;9773;47.062;15.446;2023-09-19T02:16:25;19.50;99.90
19279;DHT22;9773;47.062;15.446;2023-09-19T02:18:51;19.50;99.90
19279;DHT22;9773;47.062;15.446;2023-09-19T02:21:17;19.50;99.90
19279;DHT22;9773;47.062;15.446;2023-09-19T02:23:45;19.50;99.90
19279;DHT22;9773;47.062;15.446;2023-09-19T02:26:13;19.50;99.90
19279;DHT22;9773;47.062;15.446;2023-09-19T02:28:39;19.50;99.90
19279;DHT22;9773;47.062;15.446;2023-09-19T02:31:05;19.40;99.90
19279;DHT22;9773;47.062;15.446;2023-09-19T02:33:31;19.50;99.90
19279;DHT22;9773;47.062;15.446;2023-09-19T02:35:58;19.50;99.90
19279;DHT22;9773;47.062;15.446;2023-09-19T02:38:25;19.50;99.90
19279;DHT22;9773;47.062;15.446;2023-09-19T02:40:52;19.50;99.90
19279;DHT22;9773;47.062;15.446;2023-09-19T02:43:18;19.50;99.90
19279;DHT22;9773;47.062;15.446;2023-09-19T02:45:45;19.50;99.90
19279;DHT22;9773;47.062;15.446;2023-09-19T02:48:12;19.50;99.90
19279;DHT22;9773;47.062;15.446;2023-09-19T02:50:38;19.40;99.90
19279;DHT22;9773;47.062;15.446;2023-09-19T02:53:05;19.30;99.90
19279;DHT22;9773;47.062;15.446;2023-09-19T02:55:32;19.40;99.90
19279;DHT22;9773;47.062;15.446;2023-09-19T02:57:58;19.40;99.90
19279;DHT22;9773;47.062;15.446;2023-09-19T03:00:24;19.40;99.90
19279;DHT22;9773;47.062;15.446;2023-09-19T03:02:52;19.50;99.90
19279;DHT22;9773;47.062;15.446;2023-09-19T03:05:19;19.50;99.90
19279;DHT22;9773;47.062;15.446;2023-09-19T03:07:45;19.40;99.90
19279;DHT22;9773;47.062;15.446;2023-09-19T03:10:21;19.40;99.90
19279;DHT22;9773;47.062;15.446;2023-09-19T03:12:48;19.30;99.90
19279;DHT22;9773;47.062;15.446;2023-09-19T03:15:14;19.30;99.90
19279;DHT22;9773;47.062;15.446;2023-09-19T03:17:47;19.30;99.90
19279;DHT22;9773;47.062;15.446;2023-09-19T03:20:15;19.20;99.90
19279;DHT22;9773;47.062;15.446;2023-09-19T03:22:43;19.20;99.90
19279;DHT22;9773;47.062;15.446;2023-09-19T03:25:09;19.10;99.90
19279;DHT22;9773;47.062;15.446;2023-09-19T03:27:37;19.10;99.90
19279;DHT22;9773;47.062;15.446;2023-09-19T03:30:04;18.00;99.90
19279;DHT22;9773;47.062;15.446;2023-09-19T03:32:34;19.20;99.90
19279;DHT22;9773;47.062;15.446;2023-09-19T03:35:02;19.10;99.90
19279;DHT22;9773;47.062;15.446;2023-09-19T03:37:30;19.10;99.90
19279;DHT22;9773;47.062;15.446;2023-09-19T03:39:57;19.10;99.90
19279;DHT22;9773;47.062;15.446;2023-09-19T03:42:22;19.10;99.90
19279;DHT22;9773;47.062;15.446;2023-09-19T03:44:51;19.10;99.90
19279;DHT22;9773;47.062;15.446;2023-09-19T03:47:18;19.00;99.90
19279;DHT22;9773;47.062;15.446;2023-09-19T03:49:44;19.00;99.90
19279;DHT22;9773;47.062;15.446;2023-09-19T03:52:10;19.00;99.90
19279;DHT22;9773;47.062;15.446;2023-09-19T03:54:36;19.00;99.90
19279;DHT22;9773;47.062;15.446;2023-09-19T03:57:02;19.00;99.90
19279;DHT22;9773;47.062;15.446;2023-09-19T03:59:30;19.10;99.90
19279;DHT22;9773;47.062;15.446;2023-09-19T04:01:56;19.10;99.90
19279;DHT22;9773;47.062;15.446;2023-09-19T04:04:22;19.10;99.90
19279;DHT22;9773;47.062;15.446;2023-09-19T04:06:50;19.00;99.90
19279;DHT22;9773;47.062;15.446;2023-09-19T04:09:16;19.00;99.90
19279;DHT22;9773;47.062;15.446;2023-09-19T04:11:42;18.90;99.90
19279;DHT22;9773;47.062;15.446;2023-09-19T04:14:08;18.50;99.90
19279;DHT22;9773;47.062;15.446;2023-09-19T04:16:33;18.90;99.90
19279;DHT22;9773;47.062;15.446;2023-09-19T04:18:59;18.90;99.90
19279;DHT22;9773;47.062;15.446;2023-09-19T04:21:25;18.90;99.90
19279;DHT22;9773;47.062;15.446;2023-09-19T04:23:52;18.90;99.90
19279;DHT22;9773;47.062;15.446;2023-09-19T04:26:18;18.90;99.90
19279;DHT22;9773;47.062;15.446;2023-09-19T04:28:43;18.90;99.90
19279;DHT22;9773;47.062;15.446;2023-09-19T04:31:09;18.80;99.90
19279;DHT22;9773;47.062;15.446;2023-09-19T04:33:37;18.80;99.90
19279;DHT22;9773;47.062;15.446;2023-09-19T04:36:03;18.80;99.90
19279;DHT22;9773;47.062;15.446;2023-09-19T04:38:31;18.90;99.90
19279;DHT22;9773;47.062;15.446;2023-09-19T04:40:57;18.80;99.90
19279;DHT22;9773;47.062;15.446;2023-09-19T04:43:24;18.80;99.90
19279;DHT22;9773;47.062;15.446;2023-09-19T04:45:50;18.80;99.90
19279;DHT22;9773;47.062;15.446;2023-09-19T04:48:16;18.70;99.90
19279;DHT22;9773;47.062;15.446;2023-09-19T04:50:43;18.70;99.90
19279;DHT22;9773;47.062;15.446;2023-09-19T04:53:09;18.70;99.90
19279;DHT22;9773;47.062;15.446;2023-09-19T04:55:36;18.60;99.90
19279;DHT22;9773;47.062;15.446;2023-09-19T04:58:02;18.60;99.90
19279;DHT22;9773;47.062;15.446;2023-09-19T05:00:29;18.60;99.90
19279;DHT22;9773;47.062;15.446;2023-09-19T05:02:57;18.50;99.90
19279;DHT22;9773;47.062;15.446;2023-09-19T05:05:23;18.50;99.90
19279;DHT22;9773;47.062;15.446;2023-09-19T05:07:52;18.50;99.90
19279;DHT22;9773;47.062;15.446;2023-09-19T05:10:20;18.60;99.90
19279;DHT22;9773;47.062;15.446;2023-09-19T05:12:45;18.60;99.90
19279;DHT22;9773;47.062;15.446;2023-09-19T05:15:14;18.50;99.90
19279;DHT22;9773;47.062;15.446;2023-09-19T05:17:50;18.60;99.90
19279;DHT22;9773;47.062;15.446;2023-09-19T05:20:17;18.50;99.90
19279;DHT22;9773;47.062;15.446;2023-09-19T05:23:07;18.50;99.90
19279;DHT22;9773;47.062;15.446;2023-09-19T05:25:38;18.40;99.90
19279;DHT22;9773;47.062;15.446;2023-09-19T05:28:10;18.40;99.90
19279;DHT22;9773;47.062;15.446;2023-09-19T05:30:41;18.40;99.90
19279;DHT22;9773;47.062;15.446;2023-09-19T05:33:08;18.50;99.90
19279;DHT22;9773;47.062;15.446;2023-09-19T05:35:34;18.40;99.90
19279;DHT22;9773;47.062;15.446;2023-09-19T05:38:03;18.50;99.90
19279;DHT22;9773;47.062;15.446;2023-09-19T05:40:31;18.50;99.90
19279;DHT22;9773;47.062;15.446;2023-09-19T05:42:57;18.60;99.90
19279;DHT22;9773;47.062;15.446;2023-09-19T05:45:23;18.50;99.90
19279;DHT22;9773;47.062;15.446;2023-09-19T05:47:49;18.60;99.90
19279;DHT22;9773;47.062;15.446;2023-09-19T05:50:17;18.50;99.90
19279;DHT22;9773;47.062;15.446;2023-09-19T05:52:47;18.60;99.90
19279;DHT22;9773;47.062;15.446;2023-09-19T05:55:18;18.60;99.90
19279;DHT22;9773;47.062;15.446;2023-09-19T05:57:43;18.60;99.90
19279;DHT22;9773;47.062;15.446;2023-09-19T06:00:15;18.60;99.90
19279;DHT22;9773;47.062;15.446;2023-09-19T06:02:43;18.60;99.90
19279;DHT22;9773;47.062;15.446;2023-09-19T06:05:10;18.70;99.90
19279;DHT22;9773;47.062;15.446;2023-09-19T06:07:37;18.70;99.90
19279;DHT22;9773;47.062;15.446;2023-09-19T06:10:04;18.80;99.90
19279;DHT22;9773;47.062;15.446;2023-09-19T06:12:37;18.90;99.90
19279;DHT22;9773;47.062;15.446;2023-09-19T06:15:04;18.80;99.90
19279;DHT22;9773;47.062;15.446;2023-09-19T06:17:47;18.70;99.90
19279;DHT22;9773;47.062;15.446;2023-09-19T06:20:14;18.70;99.90
19279;DHT22;9773;47.062;15.446;2023-09-19T06:22:44;18.70;99.90
19279;DHT22;9773;47.062;15.446;2023-09-19T06:25:12;18.70;99.90
19279;DHT22;9773;47.062;15.446;2023-09-19T06:27:39;18.80;99.90
19279;DHT22;9773;47.062;15.446;2023-09-19T06:30:09;18.80;99.90
19279;DHT22;9773;47.062;15.446;2023-09-19T06:32:35;18.60;99.90
19279;DHT22;9773;47.062;15.446;2023-09-19T06:35:01;18.60;99.90
19279;DHT22;9773;47.062;15.446;2023-09-19T06:37:29;18.70;99.90
19279;DHT22;9773;47.062;15.446;2023-09-19T06:39:54;18.70;99.90
19279;DHT22;9773;47.062;15.446;2023-09-19T06:42:21;18.60;99.90
19279;DHT22;9773;47.062;15.446;2023-09-19T06:44:48;18.70;99.90
19279;DHT22;9773;47.062;15.446;2023-09-19T06:47:14;18.70;99.90
19279;DHT22;9773;47.062;15.446;2023-09-19T06:49:42;18.70;99.90
19279;DHT22;9773;47.062;15.446;2023-09-19T06:52:11;18.70;99.90
19279;DHT22;9773;47.062;15.446;2023-09-19T06:54:36;18.70;99.90
19279;DHT22;9773;47.062;15.446;2023-09-19T06:57:03;18.90;99.90
19279;DHT22;9773;47.062;15.446;2023-09-19T06:59:29;18.90;99.90
19279;DHT22;9773;47.062;15.446;2023-09-19T07:01:54;19.00;99.90
19279;DHT22;9773;47.062;15.446;2023-09-19T07:04:20;19.10;99.90
19279;DHT22;9773;47.062;15.446;2023-09-19T07:06:49;19.10;99.90
19279;DHT22;9773;47.062;15.446;2023-09-19T07:09:16;19.20;99.90
19279;DHT22;9773;47.062;15.446;2023-09-19T07:11:42;19.30;99.90
19279;DHT22;9773;47.062;15.446;2023-09-19T07:14:08;19.40;99.90
19279;DHT22;9773;47.062;15.446;2023-09-19T07:16:37;19.40;99.90
19279;DHT22;9773;47.062;15.446;2023-09-19T07:19:04;19.40;99.90
19279;DHT22;9773;47.062;15.446;2023-09-19T07:21:30;19.40;99.90
19279;DHT22;9773;47.062;15.446;2023-09-19T07:23:59;19.40;99.90
19279;DHT22;9773;47.062;15.446;2023-09-19T07:26:44;19.40;99.90
19279;DHT22;9773;47.062;15.446;2023-09-19T07:29:10;19.30;99.90
19279;DHT22;9773;47.062;15.446;2023-09-19T07:31:36;19.20;99.90
19279;DHT22;9773;47.062;15.446;2023-09-19T07:34:02;19.20;99.90
19279;DHT22;9773;47.062;15.446;2023-09-19T07:36:29;19.20;99.90
19279;DHT22;9773;47.062;15.446;2023-09-19T07:38:56;19.10;99.90
19279;DHT22;9773;47.062;15.446;2023-09-19T07:41:24;19.10;99.90
19279;DHT22;9773;47.062;15.446;2023-09-19T07:43:51;19.10;99.90
19279;DHT22;9773;47.062;15.446;2023-09-19T07:46:17;19.10;99.90
19279;DHT22;9773;47.062;15.446;2023-09-19T07:48:42;19.20;99.90
19279;DHT22;9773;47.062;15.446;2023-09-19T07:51:13;19.30;99.90
19279;DHT22;9773;47.062;15.446;2023-09-19T07:53:41;19.20;99.90
19279;DHT22;9773;47.062;15.446;2023-09-19T07:56:08;19.30;99.90
19279;DHT22;9773;47.062;15.446;2023-09-19T07:58:35;19.40;99.90
19279;DHT22;9773;47.062;15.446;2023-09-19T08:01:04;19.40;99.90
19279;DHT22;9773;47.062;15.446;2023-09-19T08:03:30;19.50;99.90
19279;DHT22;9773;47.062;15.446;2023-09-19T08:06:00;19.50;99.90
19279;DHT22;9773;47.062;15.446;2023-09-19T08:08:26;19.70;99.90
19279;DHT22;9773;47.062;15.446;2023-09-19T08:10:53;19.80;99.90
19279;DHT22;9773;47.062;15.446;2023-09-19T08:13:25;19.90;99.90
19279;DHT22;9773;47.062;15.446;2023-09-19T08:15:51;19.90;99.90
19279;DHT22;9773;47.062;15.446;2023-09-19T08:18:20;20.00;99.90
19279;DHT22;9773;47.062;15.446;2023-09-19T08:20:52;19.90;99.90
19279;DHT22;9773;47.062;15.446;2023-09-19T08:23:18;20.00;99.90
19279;DHT22;9773;47.062;15.446;2023-09-19T08:25:48;19.90;99.90
19279;DHT22;9773;47.062;15.446;2023-09-19T08:28:14;19.90;99.90
19279;DHT22;9773;47.062;15.446;2023-09-19T08:30:47;19.80;99.90
19279;DHT22;9773;47.062;15.446;2023-09-19T08:33:13;19.80;99.90
19279;DHT22;9773;47.062;15.446;2023-09-19T08:35:41;19.90;99.90
19279;DHT22;9773;47.062;15.446;2023-09-19T08:38:09;19.90;99.90
19279;DHT22;9773;47.062;15.446;2023-09-19T08:40:38;20.00;99.90
19279;DHT22;9773;47.062;15.446;2023-09-19T08:43:05;20.00;99.90
19279;DHT22;9773;47.062;15.446;2023-09-19T08:45:33;20.20;99.90
19279;DHT22;9773;47.062;15.446;2023-09-19T08:48:26;20.20;99.90
19279;DHT22;9773;47.062;15.446;2023-09-19T08:53:51;20.40;99.90
19279;DHT22;9773;47.062;15.446;2023-09-19T08:56:18;20.60;99.90
19279;DHT22;9773;47.062;15.446;2023-09-19T08:58:50;20.70;99.90
19279;DHT22;9773;47.062;15.446;2023-09-19T09:01:18;20.80;99.90
19279;DHT22;9773;47.062;15.446;2023-09-19T09:03:52;20.80;99.90
19279;DHT22;9773;47.062;15.446;2023-09-19T09:06:22;20.90;99.90
19279;DHT22;9773;47.062;15.446;2023-09-19T09:08:50;21.00;99.90
19279;DHT22;9773;47.062;15.446;2023-09-19T09:11:17;21.20;99.90
19279;DHT22;9773;47.062;15.446;2023-09-19T09:13:46;21.40;99.90
19279;DHT22;9773;47.062;15.446;2023-09-19T09:16:12;21.60;99.90
19279;DHT22;9773;47.062;15.446;2023-09-19T09:18:39;21.80;99.90
19279;DHT22;9773;47.062;15.446;2023-09-19T09:21:06;21.90;99.90
19279;DHT22;9773;47.062;15.446;2023-09-19T09:23:32;21.90;99.90
19279;DHT22;9773;47.062;15.446;2023-09-19T09:25:59;21.90;99.90
19279;DHT22;9773;47.062;15.446;2023-09-19T09:28:29;21.80;99.90
19279;DHT22;9773;47.062;15.446;2023-09-19T09:30:59;21.60;99.90
19279;DHT22;9773;47.062;15.446;2023-09-19T09:33:28;21.50;99.90
19279;DHT22;9773;47.062;15.446;2023-09-19T09:35:55;21.60;99.90
19279;DHT22;9773;47.062;15.446;2023-09-19T09:38:30;21.70;99.90
19279;DHT22;9773;47.062;15.446;2023-09-19T09:41:09;21.80;99.90
19279;DHT22;9773;47.062;15.446;2023-09-19T09:43:40;22.10;99.90
19279;DHT22;9773;47.062;15.446;2023-09-19T09:48:55;22.00;99.90
19279;DHT22;9773;47.062;15.446;2023-09-19T09:51:43;21.80;99.90
19279;DHT22;9773;47.062;15.446;2023-09-19T09:54:15;21.80;99.90
19279;DHT22;9773;47.062;15.446;2023-09-19T09:56:57;21.80;99.90
19279;DHT22;9773;47.062;15.446;2023-09-19T09:59:50;21.70;99.90
19279;DHT22;9773;47.062;15.446;2023-09-19T10:02:20;21.70;99.90
19279;DHT22;9773;47.062;15.446;2023-09-19T10:04:51;21.70;99.90
19279;DHT22;9773;47.062;15.446;2023-09-19T10:07:30;21.60;99.90
19279;DHT22;9773;47.062;15.446;2023-09-19T10:10:08;21.40;99.90
19279;DHT22;9773;47.062;15.446;2023-09-19T10:12:55;21.40;99.90
19279;DHT22;9773;47.062;15.446;2023-09-19T10:15:32;21.50;99.90
19279;DHT22;9773;47.062;15.446;2023-09-19T10:18:00;21.70;99.90
19279;DHT22;9773;47.062;15.446;2023-09-19T10:20:28;21.80;99.90
19279;DHT22;9773;47.062;15.446;2023-09-19T10:22:56;21.90;99.90
19279;DHT22;9773;47.062;15.446;2023-09-19T10:25:30;21.80;99.90
19279;DHT22;9773;47.062;15.446;2023-09-19T10:28:06;21.80;99.90
19279;DHT22;9773;47.062;15.446;2023-09-19T10:30:38;21.80;99.90
19279;DHT22;9773;47.062;15.446;2023-09-19T10:33:09;21.80;99.90
19279;DHT22;9773;47.062;15.446;2023-09-19T10:35:38;21.90;99.90
19279;DHT22;9773;47.062;15.446;2023-09-19T10:38:10;22.00;99.90
19279;DHT22;9773;47.062;15.446;2023-09-19T10:40:37;22.10;99.90
19279;DHT22;9773;47.062;15.446;2023-09-19T10:43:18;22.10;99.90
19279;DHT22;9773;47.062;15.446;2023-09-19T10:45:45;22.20;99.90
19279;DHT22;9773;47.062;15.446;2023-09-19T10:48:12;22.30;99.90
19279;DHT22;9773;47.062;15.446;2023-09-19T10:51:10;22.50;99.90
19279;DHT22;9773;47.062;15.446;2023-09-19T10:53:50;22.60;99.90
19279;DHT22;9773;47.062;15.446;2023-09-19T10:56:25;22.70;99.90
19279;DHT22;9773;47.062;15.446;2023-09-19T10:59:08;22.70;99.90
19279;DHT22;9773;47.062;15.446;2023-09-19T11:01:50;22.70;99.90
19279;DHT22;9773;47.062;15.446;2023-09-19T11:04:29;22.60;99.90
19279;DHT22;9773;47.062;15.446;2023-09-19T11:07:12;22.60;99.90
19279;DHT22;9773;47.062;15.446;2023-09-19T11:09:49;22.50;99.90
19279;DHT22;9773;47.062;15.446;2023-09-19T11:14:57;22.30;99.90
19279;DHT22;9773;47.062;15.446;2023-09-19T11:17:31;22.40;99.90
19279;DHT22;9773;47.062;15.446;2023-09-19T11:30:51;22.60;99.90
19279;DHT22;9773;47.062;15.446;2023-09-19T11:33:28;22.60;99.90
19279;DHT22;9773;47.062;15.446;2023-09-19T11:36:08;22.60;99.90
19279;DHT22;9773;47.062;15.446;2023-09-19T11:46:33;22.70;99.90
19279;DHT22;9773;47.062;15.446;2023-09-19T11:49:06;22.90;99.90
19279;DHT22;9773;47.062;15.446;2023-09-19T11:51:42;23.00;99.90
19279;DHT22;9773;47.062;15.446;2023-09-19T11:54:13;23.20;99.90
19279;DHT22;9773;47.062;15.446;2023-09-19T11:56:53;23.20;99.90
19279;DHT22;9773;47.062;15.446;2023-09-19T11:59:26;23.20;99.90
19279;DHT22;9773;47.062;15.446;2023-09-19T12:02:17;23.10;99.90
19279;DHT22;9773;47.062;15.446;2023-09-19T12:04:46;23.10;99.90
19279;DHT22;9773;47.062;15.446;2023-09-19T12:07:16;23.10;99.90
19279;DHT22;9773;47.062;15.446;2023-09-19T12:09:43;23.20;99.90
19279;DHT22;9773;47.062;15.446;2023-09-19T12:12:10;23.10;99.90
19279;DHT22;9773;47.062;15.446;2023-09-19T12:14:50;23.20;99.90
19279;DHT22;9773;47.062;15.446;2023-09-19T12:17:17;23.20;99.90
19279;DHT22;9773;47.062;15.446;2023-09-19T12:19:53;23.10;99.90
19279;DHT22;9773;47.062;15.446;2023-09-19T12:22:19;23.10;99.90
19279;DHT22;9773;47.062;15.446;2023-09-19T12:24:46;23.10;99.90
19279;DHT22;9773;47.062;15.446;2023-09-19T12:27:13;23.20;99.90
19279;DHT22;9773;47.062;15.446;2023-09-19T12:29:46;23.20;99.90
19279;DHT22;9773;47.062;15.446;2023-09-19T12:32:14;23.10;99.90
19279;DHT22;9773;47.062;15.446;2023-09-19T12:34:49;22.80;99.90
19279;DHT22;9773;47.062;15.446;2023-09-19T12:37:16;23.10;99.90
19279;DHT22;9773;47.062;15.446;2023-09-19T12:39:50;23.20;99.90
19279;DHT22;9773;47.062;15.446;2023-09-19T12:42:26;23.20;99.90
19279;DHT22;9773;47.062;15.446;2023-09-19T12:44:57;23.30;99.90
19279;DHT22;9773;47.062;15.446;2023-09-19T12:47:27;23.50;99.90
19279;DHT22;9773;47.062;15.446;2023-09-19T12:50:12;23.70;99.90
19279;DHT22;9773;47.062;15.446;2023-09-19T12:52:47;23.90;99.90
19279;DHT22;9773;47.062;15.446;2023-09-19T12:55:25;24.10;99.90
19279;DHT22;9773;47.062;15.446;2023-09-19T12:58:07;24.20;99.90
19279;DHT22;9773;47.062;15.446;2023-09-19T13:00:40;24.40;99.90
19279;DHT22;9773;47.062;15.446;2023-09-19T13:03:18;24.60;99.90
19279;DHT22;9773;47.062;15.446;2023-09-19T13:06:01;24.60;99.90
19279;DHT22;9773;47.062;15.446;2023-09-19T13:08:39;24.70;99.90
19279;DHT22;9773;47.062;15.446;2023-09-19T13:11:12;24.80;99.90
19279;DHT22;9773;47.062;15.446;2023-09-19T13:16:05;24.80;99.90
19279;DHT22;9773;47.062;15.446;2023-09-19T13:18:54;24.80;99.90
19279;DHT22;9773;47.062;15.446;2023-09-19T13:21:29;24.50;99.90
19279;DHT22;9773;47.062;15.446;2023-09-19T13:23:56;24.30;99.90
19279;DHT22;9773;47.062;15.446;2023-09-19T13:26:41;24.10;99.90
19279;DHT22;9773;47.062;15.446;2023-09-19T13:29:07;23.90;99.90
19279;DHT22;9773;47.062;15.446;2023-09-19T13:31:33;23.70;99.90
19279;DHT22;9773;47.062;15.446;2023-09-19T13:33:59;23.60;99.90
19279;DHT22;9773;47.062;15.446;2023-09-19T13:36:24;23.60;99.90
19279;DHT22;9773;47.062;15.446;2023-09-19T13:38:50;23.60;99.90
19279;DHT22;9773;47.062;15.446;2023-09-19T13:41:18;23.70;99.90
19279;DHT22;9773;47.062;15.446;2023-09-19T13:43:45;23.60;99.90
19279;DHT22;9773;47.062;15.446;2023-09-19T13:46:14;23.60;99.90
19279;DHT22;9773;47.062;15.446;2023-09-19T13:48:41;23.60;99.90
19279;DHT22;9773;47.062;15.446;2023-09-19T13:51:07;23.60;99.90
19279;DHT22;9773;47.062;15.446;2023-09-19T13:53:33;23.50;99.90
19279;DHT22;9773;47.062;15.446;2023-09-19T13:55:59;23.50;99.90
19279;DHT22;9773;47.062;15.446;2023-09-19T13:58:26;23.40;99.90
19279;DHT22;9773;47.062;15.446;2023-09-19T14:00:53;23.40;99.90
19279;DHT22;9773;47.062;15.446;2023-09-19T14:03:21;23.40;99.90
19279;DHT22;9773;47.062;15.446;2023-09-19T14:05:47;23.40;99.90
19279;DHT22;9773;47.062;15.446;2023-09-19T14:08:13;23.90;99.90
19279;DHT22;9773;47.062;15.446;2023-09-19T14:10:39;23.60;99.90
19279;DHT22;9773;47.062;15.446;2023-09-19T14:13:05;23.70;99.90
19279;DHT22;9773;47.062;15.446;2023-09-19T14:15:30;23.80;99.90
19279;DHT22;9773;47.062;15.446;2023-09-19T14:17:58;23.90;99.90
19279;DHT22;9773;47.062;15.446;2023-09-19T14:20:25;23.90;99.90
19279;DHT22;9773;47.062;15.446;2023-09-19T14:22:53;23.90;99.90
19279;DHT22;9773;47.062;15.446;2023-09-19T14:25:19;24.00;99.90
19279;DHT22;9773;47.062;15.446;2023-09-19T14:27:46;24.00;99.90
19279;DHT22;9773;47.062;15.446;2023-09-19T14:30:13;24.00;99.90
19279;DHT22;9773;47.062;15.446;2023-09-19T14:32:39;24.10;99.90
19279;DHT22;9773;47.062;15.446;2023-09-19T14:35:08;24.20;99.90
19279;DHT22;9773;47.062;15.446;2023-09-19T14:37:39;24.20;99.90
19279;DHT22;9773;47.062;15.446;2023-09-19T14:40:06;24.20;99.90
19279;DHT22;9773;47.062;15.446;2023-09-19T14:42:38;24.20;99.90
19279;DHT22;9773;47.062;15.446;2023-09-19T14:45:05;24.20;99.90
19279;DHT22;9773;47.062;15.446;2023-09-19T14:47:33;24.20;99.90
19279;DHT22;9773;47.062;15.446;2023-09-19T14:50:02;24.20;99.90
19279;DHT22;9773;47.062;15.446;2023-09-19T14:52:34;24.10;99.90
19279;DHT22;9773;47.062;15.446;2023-09-19T14:55:01;23.90;99.90
19279;DHT22;9773;47.062;15.446;2023-09-19T14:57:27;23.80;99.90
19279;DHT22;9773;47.062;15.446;2023-09-19T14:59:53;23.80;99.90
19279;DHT22;9773;47.062;15.446;2023-09-19T15:02:20;23.80;99.90
19279;DHT22;9773;47.062;15.446;2023-09-19T15:04:46;23.80;99.90
19279;DHT22;9773;47.062;15.446;2023-09-19T15:07:13;23.80;99.90
19279;DHT22;9773;47.062;15.446;2023-09-19T15:09:43;23.80;99.90
19279;DHT22;9773;47.062;15.446;2023-09-19T15:12:09;23.80;99.90
19279;DHT22;9773;47.062;15.446;2023-09-19T15:14:40;23.80;99.90
19279;DHT22;9773;47.062;15.446;2023-09-19T15:17:07;23.70;99.90
19279;DHT22;9773;47.062;15.446;2023-09-19T15:19:34;23.70;99.90
19279;DHT22;9773;47.062;15.446;2023-09-19T15:22:01;23.80;99.90
19279;DHT22;9773;47.062;15.446;2023-09-19T15:24:27;23.90;99.90
19279;DHT22;9773;47.062;15.446;2023-09-19T15:26:53;23.90;99.90
19279;DHT22;9773;47.062;15.446;2023-09-19T15:29:21;24.00;99.90
19279;DHT22;9773;47.062;15.446;2023-09-19T15:31:47;24.00;99.90
19279;DHT22;9773;47.062;15.446;2023-09-19T15:34:13;24.10;99.90
19279;DHT22;9773;47.062;15.446;2023-09-19T15:36:42;24.00;99.90
19279;DHT22;9773;47.062;15.446;2023-09-19T15:39:08;24.00;99.90
19279;DHT22;9773;47.062;15.446;2023-09-19T15:41:39;23.90;99.90
19279;DHT22;9773;47.062;15.446;2023-09-19T15:44:15;23.80;99.90
19279;DHT22;9773;47.062;15.446;2023-09-19T15:46:41;23.70;99.90
19279;DHT22;9773;47.062;15.446;2023-09-19T15:49:08;23.60;99.90
19279;DHT22;9773;47.062;15.446;2023-09-19T15:51:35;23.50;99.90
19279;DHT22;9773;47.062;15.446;2023-09-19T15:54:11;23.40;99.90
19279;DHT22;9773;47.062;15.446;2023-09-19T15:56:40;23.30;99.90
19279;DHT22;9773;47.062;15.446;2023-09-19T15:59:07;23.20;99.90
19279;DHT22;9773;47.062;15.446;2023-09-19T16:01:34;23.10;99.90
19279;DHT22;9773;47.062;15.446;2023-09-19T16:04:02;23.10;99.90
19279;DHT22;9773;47.062;15.446;2023-09-19T16:06:29;23.00;99.90
19279;DHT22;9773;47.062;15.446;2023-09-19T16:08:58;23.00;99.90
19279;DHT22;9773;47.062;15.446;2023-09-19T16:11:27;22.90;99.90
19279;DHT22;9773;47.062;15.446;2023-09-19T16:13:53;22.80;99.90
19279;DHT22;9773;47.062;15.446;2023-09-19T16:16:21;22.70;99.90
19279;DHT22;9773;47.062;15.446;2023-09-19T16:18:52;22.60;99.90
19279;DHT22;9773;47.062;15.446;2023-09-19T16:21:22;22.60;99.90
19279;DHT22;9773;47.062;15.446;2023-09-19T16:23:49;22.60;99.90
19279;DHT22;9773;47.062;15.446;2023-09-19T16:26:16;22.60;99.90
19279;DHT22;9773;47.062;15.446;2023-09-19T16:28:45;22.50;99.90
19279;DHT22;9773;47.062;15.446;2023-09-19T16:31:12;22.50;99.90